createdAt,value
2019-02-05T00:00:39.339Z,100.00
2019-02-05T00:03:11.410Z,100.00
2019-02-05T00:05:40.038Z,100.00
2019-02-05T00:08:08.826Z,100.00
2019-02-05T00:10:37.460Z,100.00
2019-02-05T00:13:06.303Z,100.00
2019-02-05T00:15:35.254Z,100.00
2019-02-05T00:18:04.076Z,100.00
2019-02-05T00:20:32.706Z,100.00
2019-02-05T00:23:01.396Z,100.00
2019-02-05T00:25:30.017Z,100.00
2019-02-05T00:27:58.732Z,100.00
2019-02-05T00:30:27.795Z,100.00
2019-02-05T00:32:56.427Z,98.83
2019-02-05T00:35:25.138Z,98.16
2019-02-05T00:37:53.788Z,98.00
2019-02-05T00:40:22.514Z,99.23
2019-02-05T00:42:51.104Z,98.47
2019-02-05T00:45:21.161Z,97.75
2019-02-05T00:47:49.782Z,97.08
2019-02-05T00:50:19.415Z,97.06
2019-02-05T00:52:48.068Z,97.08
2019-02-05T00:55:18.299Z,95.70
2019-02-05T00:57:47.031Z,94.38
2019-02-05T01:00:18.939Z,94.72
2019-02-05T01:02:47.742Z,95.21
2019-02-05T01:05:16.775Z,95.90
2019-02-05T01:07:45.560Z,96.59
2019-02-05T01:10:14.889Z,97.28
2019-02-05T01:12:43.523Z,96.85
2019-02-05T01:15:20.430Z,97.92
2019-02-05T01:17:49.057Z,98.38
2019-02-05T01:20:19.192Z,98.24
2019-02-05T01:22:49.461Z,98.17
2019-02-05T01:25:21.504Z,97.31
2019-02-05T01:27:50.900Z,97.45
2019-02-05T01:30:24.617Z,97.72
2019-02-05T01:32:53.536Z,98.22
2019-02-05T01:35:22.556Z,98.32
2019-02-05T01:37:51.146Z,97.99
2019-02-05T01:40:21.664Z,97.88
2019-02-05T01:42:50.497Z,98.14
2019-02-05T01:45:20.870Z,97.91
2019-02-05T01:47:49.484Z,97.04
2019-02-05T01:50:22.833Z,96.39
2019-02-05T01:52:51.637Z,96.52
2019-02-05T01:55:20.538Z,96.71
2019-02-05T01:57:49.277Z,95.89
2019-02-05T02:00:23.438Z,95.57
2019-02-05T02:02:52.028Z,96.23
2019-02-05T02:05:20.577Z,96.07
2019-02-05T02:07:49.527Z,96.31
2019-02-05T02:10:21.177Z,96.39
2019-02-05T02:12:49.893Z,95.34
2019-02-05T02:15:18.999Z,95.03
2019-02-05T02:17:47.821Z,95.11
2019-02-05T02:20:20.519Z,94.65
2019-02-05T02:22:49.176Z,94.27
2019-02-05T02:25:18.507Z,94.39
2019-02-05T02:27:48.241Z,93.94
2019-02-05T02:30:28.580Z,94.14
2019-02-05T02:32:57.317Z,94.45
2019-02-05T02:35:25.944Z,94.44
2019-02-05T02:37:54.993Z,95.01
2019-02-05T02:40:23.693Z,95.52
2019-02-05T02:42:52.326Z,96.32
2019-02-05T02:45:20.923Z,96.52
2019-02-05T02:47:49.554Z,97.37
2019-02-05T02:50:19.875Z,98.09
2019-02-05T02:52:48.953Z,97.04
2019-02-05T02:55:17.627Z,97.43
2019-02-05T02:57:46.251Z,97.90
2019-02-05T03:00:17.221Z,97.05
2019-02-05T03:02:46.458Z,96.73
2019-02-05T03:05:17.272Z,96.36
2019-02-05T03:07:46.773Z,96.96
2019-02-05T03:10:23.330Z,97.59
2019-02-05T03:12:52.305Z,98.38
2019-02-05T03:15:21.026Z,99.34
2019-02-05T03:17:49.654Z,99.44
2019-02-05T03:20:18.408Z,99.56
2019-02-05T03:22:47.038Z,99.88
2019-02-05T03:25:21.541Z,99.79
2019-02-05T03:27:53.685Z,99.90
2019-02-05T03:30:23.333Z,100.00
2019-02-05T03:32:53.249Z,100.00
2019-02-05T03:35:22.127Z,100.00
2019-02-05T03:37:50.691Z,100.00
2019-02-05T03:40:31.765Z,100.00
2019-02-05T03:43:00.414Z,100.00
2019-02-05T03:45:31.831Z,100.00
2019-02-05T03:48:02.387Z,100.00
2019-02-05T03:50:33.761Z,100.00
2019-02-05T03:53:20.640Z,100.00
2019-02-05T03:56:04.055Z,100.00
2019-02-05T03:58:35.650Z,100.00
2019-02-05T04:01:27.173Z,100.00
2019-02-05T04:04:04.798Z,100.00
2019-02-05T04:06:59.020Z,100.00
2019-02-05T04:09:49.993Z,100.00
2019-02-05T04:12:24.386Z,100.00
2019-02-05T04:14:59.315Z,100.00
2019-02-05T04:17:39.696Z,100.00
2019-02-05T04:20:20.205Z,100.00
2019-02-05T04:23:03.467Z,100.00
2019-02-05T04:25:37.775Z,100.00
2019-02-05T04:28:34.955Z,100.00
2019-02-05T04:31:24.561Z,100.00
2019-02-05T04:34:07.924Z,100.00
2019-02-05T04:36:48.122Z,100.00
2019-02-05T04:39:25.445Z,100.00
2019-02-05T04:42:09.005Z,100.00
2019-02-05T04:44:49.615Z,100.00
2019-02-05T04:47:29.734Z,100.00
2019-02-05T04:50:01.285Z,100.00
2019-02-05T04:52:44.862Z,100.00
2019-02-05T04:55:22.389Z,100.00
2019-02-05T04:58:25.741Z,100.00
2019-02-05T05:01:17.145Z,100.00
2019-02-05T05:04:08.087Z,100.00
2019-02-05T05:07:01.273Z,100.00
2019-02-05T05:09:41.925Z,100.00
2019-02-05T05:12:10.599Z,100.00
2019-02-05T05:14:39.624Z,100.00
2019-02-05T05:17:08.309Z,100.00
2019-02-05T05:19:36.943Z,100.00
2019-02-05T05:22:06.172Z,100.00
2019-02-05T05:24:34.982Z,100.00
2019-02-05T05:27:05.409Z,100.00
2019-02-05T05:29:34.234Z,100.00
2019-02-05T05:32:03.410Z,100.00
2019-02-05T05:34:32.043Z,100.00
2019-02-05T05:36:59.377Z,100.00
2019-02-05T05:39:28.055Z,100.00
2019-02-05T05:41:56.616Z,100.00
2019-02-05T05:44:25.252Z,100.00
2019-02-05T05:46:53.937Z,100.00
2019-02-05T05:49:22.942Z,100.00
2019-02-05T05:51:51.577Z,100.00
2019-02-05T05:54:20.282Z,100.00
2019-02-05T05:56:48.834Z,100.00
2019-02-05T05:59:17.480Z,100.00
2019-02-05T06:01:46.143Z,100.00
2019-02-05T06:04:14.869Z,100.00
2019-02-05T06:06:43.778Z,100.00
2019-02-05T06:09:12.660Z,100.00
2019-02-05T06:11:42.297Z,100.00
2019-02-05T06:14:10.932Z,100.00
2019-02-05T06:16:39.614Z,100.00
2019-02-05T06:19:08.377Z,100.00
2019-02-05T06:21:37.015Z,100.00
2019-02-05T06:24:05.911Z,100.00
2019-02-05T06:26:34.567Z,100.00
2019-02-05T06:29:03.195Z,100.00
2019-02-05T06:31:31.867Z,100.00
2019-02-05T06:34:00.606Z,100.00
2019-02-05T06:36:29.394Z,100.00
2019-02-05T06:38:58.014Z,100.00
2019-02-05T06:41:26.660Z,100.00
2019-02-05T06:43:55.299Z,100.00
2019-02-05T06:46:23.991Z,100.00
2019-02-05T06:48:52.613Z,100.00
2019-02-05T06:51:21.255Z,100.00
2019-02-05T06:53:49.932Z,100.00
2019-02-05T06:56:18.926Z,100.00
2019-02-05T06:58:47.507Z,100.00
2019-02-05T07:01:16.602Z,100.00
2019-02-05T07:03:45.247Z,100.00
2019-02-05T07:06:13.869Z,100.00
2019-02-05T07:08:42.740Z,100.00
2019-02-05T07:11:11.456Z,100.00
2019-02-05T07:13:40.393Z,100.00
2019-02-05T07:16:09.143Z,100.00
2019-02-05T07:18:37.767Z,100.00
2019-02-05T07:21:06.389Z,100.00
2019-02-05T07:23:35.082Z,100.00
2019-02-05T07:26:03.738Z,100.00
2019-02-05T07:28:32.387Z,100.00
2019-02-05T07:31:01.436Z,100.00
2019-02-05T07:33:29.990Z,100.00
2019-02-05T07:35:58.546Z,100.00
2019-02-05T07:38:27.235Z,100.00
2019-02-05T07:40:55.872Z,100.00
2019-02-05T07:43:24.520Z,100.00
2019-02-05T07:45:53.202Z,100.00
2019-02-05T07:48:21.829Z,100.00
2019-02-05T07:50:50.776Z,98.87
2019-02-05T07:53:19.693Z,98.79
2019-02-05T07:55:48.258Z,98.67
2019-02-05T07:58:16.950Z,98.46
2019-02-05T08:00:45.704Z,98.86
2019-02-05T08:03:14.336Z,98.61
2019-02-05T08:05:42.960Z,97.95
2019-02-05T08:08:12.114Z,97.77
2019-02-05T08:10:40.752Z,97.23
2019-02-05T08:13:09.777Z,96.59
2019-02-05T08:15:38.447Z,96.83
2019-02-05T08:18:08.600Z,97.54
2019-02-05T08:20:37.236Z,96.63
2019-02-05T08:23:05.887Z,96.81
2019-02-05T08:25:34.616Z,96.73
2019-02-05T08:28:03.811Z,96.54
2019-02-05T08:30:41.588Z,96.04
2019-02-05T08:33:10.201Z,95.55
2019-02-05T08:35:38.905Z,94.87
2019-02-05T08:38:07.860Z,93.57
2019-02-05T08:40:36.507Z,94.04
2019-02-05T08:43:06.002Z,94.12
2019-02-05T08:45:36.874Z,94.50
2019-02-05T08:48:07.636Z,93.78
2019-02-05T08:50:36.570Z,91.62
2019-02-05T08:53:05.766Z,92.32
2019-02-05T08:55:34.419Z,91.88
2019-02-05T08:58:08.414Z,90.86
2019-02-05T09:00:42.235Z,89.31
2019-02-05T09:03:11.861Z,87.91
2019-02-05T09:05:40.916Z,88.13
2019-02-05T09:08:09.821Z,88.50
2019-02-05T09:10:42.476Z,87.94
2019-02-05T09:13:11.458Z,86.66
2019-02-05T09:15:40.088Z,87.12
2019-02-05T09:18:09.106Z,86.34
2019-02-05T09:20:37.746Z,84.66
2019-02-05T09:23:07.022Z,84.72
2019-02-05T09:25:35.666Z,84.71
2019-02-05T09:28:04.720Z,84.90
2019-02-05T09:30:37.578Z,83.34
2019-02-05T09:33:12.176Z,82.27
2019-02-05T09:35:40.852Z,81.97
2019-02-05T09:38:09.476Z,81.69
2019-02-05T09:40:38.116Z,83.75
2019-02-05T09:43:06.792Z,82.32
2019-02-05T09:45:35.766Z,82.24
2019-02-05T09:48:04.593Z,82.88
2019-02-05T09:50:44.316Z,82.35
2019-02-05T09:53:03.979Z,82.86
2019-02-05T09:55:32.602Z,84.95
2019-02-05T09:58:01.150Z,85.15
2019-02-05T10:00:38.068Z,85.90
2019-02-05T10:03:07.431Z,85.88
2019-02-05T10:05:36.832Z,86.10
2019-02-05T10:08:06.180Z,84.88
2019-02-05T10:10:34.970Z,83.96
2019-02-05T10:13:03.957Z,81.90
2019-02-05T10:15:41.176Z,81.17
2019-02-05T10:18:11.899Z,81.18
2019-02-05T10:20:40.660Z,80.91
2019-02-05T10:23:10.113Z,81.81
2019-02-05T10:25:38.839Z,82.73
2019-02-05T10:28:07.479Z,83.32
2019-02-05T10:30:38.710Z,83.63
2019-02-05T10:33:07.939Z,84.52
2019-02-05T10:35:36.667Z,84.49
2019-02-05T10:38:05.936Z,83.81
2019-02-05T10:40:34.688Z,82.98
2019-02-05T10:43:03.255Z,82.56
2019-02-05T10:45:31.887Z,84.20
2019-02-05T10:48:00.634Z,85.32
2019-02-05T10:50:29.262Z,87.40
2019-02-05T10:52:57.920Z,88.00
2019-02-05T10:55:26.551Z,87.45
2019-02-05T10:57:56.172Z,87.46
2019-02-05T11:00:30.041Z,86.60
2019-02-05T11:03:00.673Z,87.05
2019-02-05T11:05:30.473Z,87.54
2019-02-05T11:07:59.722Z,87.39
2019-02-05T11:10:28.326Z,86.85
2019-02-05T11:12:57.079Z,87.44
2019-02-05T11:15:28.264Z,86.92
2019-02-05T11:17:56.903Z,86.85
2019-02-05T11:20:27.615Z,85.46
2019-02-05T11:22:56.379Z,87.09
2019-02-05T11:25:25.306Z,87.75
2019-02-05T11:27:53.938Z,87.38
2019-02-05T11:30:31.683Z,87.28
2019-02-05T11:33:00.313Z,87.85
2019-02-05T11:35:29.423Z,86.84
2019-02-05T11:37:58.196Z,87.13
2019-02-05T11:40:29.628Z,86.61
2019-02-05T11:42:58.265Z,85.71
2019-02-05T11:45:26.958Z,84.26
2019-02-05T11:47:55.997Z,83.84
2019-02-05T11:50:25.135Z,83.34
2019-02-05T11:52:54.081Z,82.78
2019-02-05T11:55:27.887Z,82.70
2019-02-05T11:57:56.610Z,81.80
2019-02-05T12:00:39.501Z,81.72
2019-02-05T12:03:09.670Z,80.89
2019-02-05T12:05:38.513Z,81.46
2019-02-05T12:08:07.494Z,79.89
2019-02-05T12:10:36.122Z,79.47
2019-02-05T12:13:05.062Z,78.23
2019-02-05T12:15:33.723Z,78.18
2019-02-05T12:18:02.450Z,78.05
2019-02-05T12:20:31.113Z,78.58
2019-02-05T12:23:00.409Z,77.18
2019-02-05T12:25:29.041Z,77.27
2019-02-05T12:27:57.666Z,76.05
2019-02-05T12:30:45.184Z,75.54
2019-02-05T12:33:10.749Z,74.75
2019-02-05T12:35:39.492Z,76.56
2019-02-05T12:38:09.193Z,76.34
2019-02-05T12:40:37.845Z,76.36
2019-02-05T12:43:06.486Z,76.26
2019-02-05T12:45:37.266Z,75.97
2019-02-05T12:48:06.397Z,75.30
2019-02-05T12:50:37.634Z,73.50
2019-02-05T12:53:06.928Z,73.64
2019-02-05T12:55:35.569Z,72.69
2019-02-05T12:58:04.817Z,73.37
2019-02-05T13:00:36.273Z,73.14
2019-02-05T13:03:05.380Z,74.18
2019-02-05T13:05:34.007Z,74.50
2019-02-05T13:08:05.344Z,74.67
2019-02-05T13:10:35.814Z,75.84
2019-02-05T13:13:06.264Z,75.03
2019-02-05T13:15:34.992Z,76.65
2019-02-05T13:18:03.912Z,76.64
2019-02-05T13:20:32.764Z,77.59
2019-02-05T13:23:03.045Z,76.53
2019-02-05T13:25:35.011Z,76.38
2019-02-05T13:28:05.062Z,76.67
2019-02-05T13:30:35.470Z,77.06
2019-02-05T13:33:05.108Z,76.56
2019-02-05T13:35:34.085Z,76.89
2019-02-05T13:38:02.752Z,77.65
2019-02-05T13:40:31.379Z,78.04
2019-02-05T13:43:00.615Z,78.65
2019-02-05T13:45:31.972Z,78.77
2019-02-05T13:48:00.740Z,79.16
2019-02-05T13:50:33.394Z,79.60
2019-02-05T13:53:02.250Z,79.27
2019-02-05T13:55:33.186Z,78.83
2019-02-05T13:58:01.991Z,79.50
2019-02-05T14:00:45.234Z,77.44
2019-02-05T14:03:13.968Z,77.60
2019-02-05T14:05:42.782Z,78.84
2019-02-05T14:08:11.450Z,79.40
2019-02-05T14:10:42.281Z,79.20
2019-02-05T14:13:11.129Z,79.98
2019-02-05T14:15:45.019Z,80.49
2019-02-05T14:18:13.715Z,80.08
2019-02-05T14:20:42.345Z,80.34
2019-02-05T14:23:11.212Z,80.29
2019-02-05T14:25:40.054Z,80.61
2019-02-05T14:28:08.688Z,81.08
2019-02-05T14:30:42.607Z,81.23
2019-02-05T14:33:11.228Z,81.41
2019-02-05T14:35:40.107Z,81.02
2019-02-05T14:38:09.302Z,81.84
2019-02-05T14:40:37.932Z,81.78
2019-02-05T14:43:07.145Z,82.02
2019-02-05T14:45:36.347Z,82.25
2019-02-05T14:48:06.411Z,81.82
2019-02-05T14:50:39.900Z,82.10
2019-02-05T14:53:09.983Z,82.24
2019-02-05T14:55:38.632Z,82.81
2019-02-05T14:58:09.267Z,82.27
2019-02-05T15:00:38.575Z,82.55
2019-02-05T15:03:12.056Z,83.29
2019-02-05T15:05:41.217Z,84.32
2019-02-05T15:08:10.552Z,84.02
2019-02-05T15:10:39.239Z,84.92
2019-02-05T15:13:07.959Z,85.08
2019-02-05T15:15:36.744Z,86.07
2019-02-05T15:18:07.280Z,86.13
2019-02-05T15:20:44.064Z,86.05
2019-02-05T15:23:12.792Z,86.96
2019-02-05T15:25:41.615Z,87.75
2019-02-05T15:28:10.634Z,87.95
2019-02-05T15:30:45.765Z,88.10
2019-02-05T15:33:33.666Z,88.99
2019-02-05T15:36:03.945Z,89.99
2019-02-05T15:38:32.775Z,90.89
2019-02-05T15:41:01.453Z,91.57
2019-02-05T15:43:30.051Z,91.48
2019-02-05T15:45:58.669Z,92.30
2019-02-05T15:48:27.362Z,92.33
2019-02-05T15:50:55.988Z,92.75
2019-02-05T15:53:25.099Z,93.17
2019-02-05T15:55:53.780Z,93.26
2019-02-05T15:58:22.354Z,93.84
2019-02-05T16:00:50.918Z,94.60
2019-02-05T16:03:19.594Z,95.11
2019-02-05T16:05:48.235Z,95.26
2019-02-05T16:08:16.742Z,95.53
2019-02-05T16:10:52.913Z,95.93
2019-02-05T16:13:21.550Z,97.00
2019-02-05T16:15:50.189Z,97.50
2019-02-05T16:18:18.863Z,97.18
2019-02-05T16:20:47.524Z,97.32
2019-02-05T16:23:16.511Z,97.03
2019-02-05T16:25:45.118Z,97.59
2019-02-05T16:28:13.746Z,97.63
2019-02-05T16:30:42.413Z,97.84
2019-02-05T16:33:11.097Z,98.36
2019-02-05T16:35:39.661Z,98.62
2019-02-05T16:38:08.312Z,98.73
2019-02-05T16:40:39.182Z,98.52
2019-02-05T16:43:07.943Z,98.69
2019-02-05T16:45:36.583Z,98.59
2019-02-05T16:48:06.010Z,98.96
2019-02-05T16:50:37.431Z,98.53
2019-02-05T16:53:08.140Z,98.74
2019-02-05T16:55:36.776Z,99.00
2019-02-05T16:58:06.882Z,98.38
2019-02-05T17:00:36.706Z,98.15
2019-02-05T17:03:06.589Z,97.89
2019-02-05T17:05:37.958Z,97.97
2019-02-05T17:08:07.067Z,97.42
2019-02-05T17:10:35.832Z,97.82
2019-02-05T17:13:05.360Z,97.59
2019-02-05T17:15:34.065Z,97.42
2019-02-05T17:18:02.745Z,97.85
2019-02-05T17:20:32.685Z,97.57
2019-02-05T17:23:01.326Z,97.68
2019-02-05T17:25:30.201Z,97.76
2019-02-05T17:28:03.279Z,97.79
2019-02-05T17:30:34.435Z,98.77
2019-02-05T17:33:03.193Z,99.12
2019-02-05T17:35:31.929Z,99.01
2019-02-05T17:38:09.242Z,98.55
2019-02-05T17:40:38.084Z,98.36
2019-02-05T17:43:07.318Z,99.08
2019-02-05T17:45:38.544Z,99.44
2019-02-05T17:48:10.122Z,98.44
2019-02-05T17:50:38.820Z,98.31
2019-02-05T17:53:07.574Z,98.76
2019-02-05T17:55:36.209Z,99.25
2019-02-05T17:58:05.347Z,100.00
2019-02-05T18:00:36.539Z,100.00
2019-02-05T18:03:05.790Z,100.00
2019-02-05T18:05:34.997Z,100.00
2019-02-05T18:08:04.784Z,100.00
2019-02-05T18:10:33.410Z,100.00
2019-02-05T18:13:02.048Z,100.00
2019-02-05T18:15:54.105Z,100.00
2019-02-05T18:18:22.970Z,100.00
2019-02-05T18:20:51.600Z,100.00
2019-02-05T18:23:20.230Z,100.00
2019-02-05T18:25:48.882Z,100.00
2019-02-05T18:28:17.570Z,100.00
2019-02-05T18:30:46.301Z,100.00
2019-02-05T18:33:15.311Z,100.00
2019-02-05T18:35:44.064Z,100.00
2019-02-05T18:38:15.300Z,100.00
2019-02-05T18:40:43.934Z,100.00
2019-02-05T18:43:12.622Z,100.00
2019-02-05T18:45:41.262Z,100.00
2019-02-05T18:48:10.295Z,100.00
2019-02-05T18:50:38.962Z,100.00
2019-02-05T18:53:07.598Z,100.00
2019-02-05T18:55:38.732Z,100.00
2019-02-05T18:58:09.652Z,100.00
2019-02-05T19:00:40.911Z,100.00
2019-02-05T19:03:15.613Z,100.00
2019-02-05T19:05:41.472Z,99.87
2019-02-05T19:08:10.700Z,99.93
2019-02-05T19:10:39.897Z,100.00
2019-02-05T19:13:09.089Z,100.00
2019-02-05T19:15:39.786Z,99.42
2019-02-05T19:18:09.323Z,99.05
2019-02-05T19:20:46.721Z,98.55
2019-02-05T19:23:15.204Z,99.04
2019-02-05T19:25:48.424Z,98.33
2019-02-05T19:28:21.579Z,98.49
2019-02-05T19:30:51.836Z,97.62
2019-02-05T19:33:27.322Z,97.68
2019-02-05T19:35:50.774Z,97.17
2019-02-05T19:38:19.601Z,96.79
2019-02-05T19:40:57.200Z,96.79
2019-02-05T19:43:18.766Z,96.99
2019-02-05T19:45:51.969Z,97.66
2019-02-05T19:48:25.246Z,97.15
2019-02-05T19:50:54.085Z,97.40
2019-02-05T19:53:28.609Z,97.35
2019-02-05T19:55:57.663Z,96.37
2019-02-05T19:58:26.284Z,96.80
2019-02-05T20:00:55.385Z,97.53
2019-02-05T20:03:24.038Z,97.29
2019-02-05T20:05:52.669Z,97.69
2019-02-05T20:08:21.293Z,97.12
2019-02-05T20:10:50.034Z,96.95
2019-02-05T20:13:18.656Z,97.09
2019-02-05T20:15:47.386Z,96.53
2019-02-05T20:18:16.332Z,97.49
2019-02-05T20:20:44.957Z,97.08
2019-02-05T20:23:13.600Z,97.30
2019-02-05T20:25:49.626Z,97.56
2019-02-05T20:28:18.247Z,96.77
2019-02-05T20:30:46.872Z,97.14
2019-02-05T20:33:15.740Z,97.08
2019-02-05T20:35:44.369Z,96.42
2019-02-05T20:38:12.987Z,96.80
2019-02-05T20:40:41.681Z,96.41
2019-02-05T20:43:10.282Z,96.92
2019-02-05T20:45:38.899Z,96.21
2019-02-05T20:48:07.949Z,96.76
2019-02-05T20:50:36.850Z,96.81
2019-02-05T20:53:13.320Z,96.75
2019-02-05T20:55:36.051Z,96.89
2019-02-05T20:58:13.753Z,97.73
2019-02-05T21:00:42.547Z,97.49
2019-02-05T21:03:11.162Z,97.68
2019-02-05T21:05:40.156Z,97.42
2019-02-05T21:08:08.811Z,98.00
2019-02-05T21:10:37.430Z,97.77
2019-02-05T21:13:06.055Z,97.50
2019-02-05T21:15:34.634Z,97.60
2019-02-05T21:18:03.256Z,97.58
2019-02-05T21:20:33.931Z,97.70
2019-02-05T21:23:03.558Z,97.98
2019-02-05T21:25:32.390Z,98.32
2019-02-05T21:28:01.101Z,98.05
2019-02-05T21:30:29.756Z,98.41
2019-02-05T21:32:58.368Z,98.54
2019-02-05T21:35:26.924Z,97.86
2019-02-05T21:37:55.582Z,97.43
2019-02-05T21:40:27.946Z,97.39
2019-02-05T21:42:56.592Z,98.06
2019-02-05T21:45:27.523Z,97.48
2019-02-05T21:47:56.130Z,97.35
2019-02-05T21:50:24.844Z,97.79
2019-02-05T21:52:53.658Z,98.09
2019-02-05T21:55:23.472Z,98.24
2019-02-05T21:57:52.435Z,97.76
2019-02-05T22:00:26.508Z,98.19
2019-02-05T22:02:55.573Z,98.22
2019-02-05T22:05:25.130Z,98.64
2019-02-05T22:07:53.723Z,98.11
2019-02-05T22:10:22.617Z,98.37
2019-02-05T22:12:51.262Z,98.22
2019-02-05T22:15:20.855Z,98.57
2019-02-05T22:17:49.479Z,99.20
2019-02-05T22:20:24.626Z,99.40
2019-02-05T22:22:56.087Z,98.32
2019-02-05T22:25:33.532Z,98.18
2019-02-05T22:28:02.152Z,98.03
2019-02-05T22:30:35.727Z,98.27
2019-02-05T22:33:05.898Z,98.39
2019-02-05T22:35:34.508Z,98.12
2019-02-05T22:38:03.131Z,98.08
2019-02-05T22:40:31.808Z,97.40
2019-02-05T22:43:00.423Z,97.72
2019-02-05T22:45:31.479Z,98.39
2019-02-05T22:48:00.152Z,98.37
2019-02-05T22:50:33.859Z,98.46
2019-02-05T22:53:04.481Z,98.73
2019-02-05T22:55:33.157Z,99.14
2019-02-05T22:58:05.918Z,99.41
2019-02-05T23:00:54.291Z,100.00
2019-02-05T23:03:32.209Z,100.00
2019-02-05T23:06:07.002Z,100.00
2019-02-05T23:08:35.959Z,100.00
2019-02-05T23:11:24.444Z,100.00
2019-02-05T23:13:53.109Z,100.00
2019-02-05T23:16:21.794Z,100.00
2019-02-05T23:18:50.396Z,100.00
2019-02-05T23:21:19.011Z,100.00
2019-02-05T23:23:47.745Z,100.00
2019-02-05T23:26:16.632Z,100.00
2019-02-05T23:28:45.299Z,100.00
2019-02-05T23:31:13.915Z,100.00
2019-02-05T23:33:44.744Z,100.00
2019-02-05T23:36:12.940Z,100.00
2019-02-05T23:38:42.289Z,100.00
2019-02-05T23:41:11.542Z,100.00
2019-02-05T23:43:40.172Z,100.00
2019-02-05T23:46:08.804Z,100.00
2019-02-05T23:48:37.475Z,100.00
2019-02-05T23:51:06.116Z,100.00
2019-02-05T23:53:34.822Z,100.00
2019-02-05T23:56:03.491Z,100.00
2019-02-05T23:58:32.433Z,100.00
